createdAt,value
2022-09-26T00:01:16.607Z,83.64
2022-09-26T00:04:23.693Z,82.15
2022-09-26T00:07:26.846Z,80.60
2022-09-26T00:10:28.968Z,80.97
2022-09-26T00:13:31.817Z,79.64
2022-09-26T00:16:34.037Z,79.70
2022-09-26T00:19:36.119Z,78.44
2022-09-26T00:22:38.186Z,78.73
2022-09-26T00:25:50.880Z,79.22
2022-09-26T00:28:53.162Z,79.45
2022-09-26T00:31:55.178Z,79.60
2022-09-26T00:34:57.222Z,79.41
2022-09-26T00:37:59.260Z,79.42
2022-09-26T00:41:01.472Z,79.47
2022-09-26T00:44:03.623Z,78.65
2022-09-26T00:47:06.424Z,78.29
2022-09-26T00:50:35.284Z,78.57
2022-09-26T00:53:43.991Z,78.85
2022-09-26T00:56:49.176Z,79.43
2022-09-26T00:59:56.282Z,79.67
2022-09-26T01:02:58.362Z,80.10
2022-09-26T01:06:00.399Z,80.30
2022-09-26T01:09:08.773Z,80.46
2022-09-26T01:12:11.026Z,80.59
2022-09-26T01:15:13.846Z,80.75
2022-09-26T01:18:15.912Z,80.09
2022-09-26T01:21:44.804Z,79.54
2022-09-26T01:25:24.249Z,79.33
2022-09-26T01:28:38.100Z,79.55
2022-09-26T01:32:22.738Z,81.24
2022-09-26T01:35:49.615Z,81.17
2022-09-26T01:39:09.887Z,80.00
2022-09-26T01:42:39.257Z,79.89
2022-09-26T01:46:03.536Z,79.79
2022-09-26T01:49:34.951Z,78.67
2022-09-26T01:52:50.862Z,77.83
2022-09-26T01:55:58.143Z,78.38
2022-09-26T01:59:05.022Z,78.15
2022-09-26T02:02:12.767Z,77.54
2022-09-26T02:05:33.389Z,76.90
2022-09-26T02:08:46.340Z,77.30
2022-09-26T02:11:49.641Z,76.82
2022-09-26T02:14:52.518Z,76.23
2022-09-26T02:18:15.421Z,76.87
2022-09-26T02:21:20.334Z,77.32
2022-09-26T02:24:25.372Z,77.50
2022-09-26T02:27:27.608Z,77.60
2022-09-26T02:30:29.797Z,77.13
2022-09-26T02:33:33.131Z,77.41
2022-09-26T02:36:36.615Z,77.40
2022-09-26T02:39:40.503Z,77.39
2022-09-26T02:42:55.151Z,77.10
2022-09-26T02:46:15.526Z,77.70
2022-09-26T02:49:54.974Z,77.48
2022-09-26T02:53:18.113Z,77.02
2022-09-26T02:56:50.088Z,77.01
2022-09-26T02:59:59.792Z,76.55
2022-09-26T03:03:08.022Z,76.11
2022-09-26T03:06:13.167Z,76.33
2022-09-26T03:09:15.667Z,76.17
2022-09-26T03:12:17.772Z,76.33
2022-09-26T03:15:20.199Z,76.95
2022-09-26T03:18:29.655Z,76.59
2022-09-26T03:21:36.143Z,75.90
2022-09-26T03:24:42.241Z,75.62
2022-09-26T03:27:44.379Z,76.18
2022-09-26T03:30:46.719Z,75.50
2022-09-26T03:34:06.395Z,75.48
2022-09-26T03:37:08.814Z,75.53
2022-09-26T03:40:12.958Z,75.01
2022-09-26T03:43:46.167Z,75.92
2022-09-26T03:46:49.671Z,75.77
2022-09-26T03:49:51.830Z,75.53
2022-09-26T03:52:54.036Z,75.89
2022-09-26T03:56:13.042Z,76.08
2022-09-26T03:59:15.360Z,77.38
2022-09-26T04:02:18.404Z,77.14
2022-09-26T04:05:24.170Z,77.73
2022-09-26T04:08:26.316Z,76.30
2022-09-26T04:11:28.562Z,77.01
2022-09-26T04:14:31.667Z,77.26
2022-09-26T04:17:35.071Z,77.63
2022-09-26T04:20:38.340Z,77.25
2022-09-26T04:23:40.975Z,77.20
2022-09-26T04:26:44.234Z,77.95
2022-09-26T04:29:46.515Z,78.15
2022-09-26T04:33:05.179Z,78.26
2022-09-26T04:36:10.562Z,77.44
2022-09-26T04:39:13.468Z,77.21
2022-09-26T04:42:15.733Z,77.64
2022-09-26T04:45:18.473Z,76.28
2022-09-26T04:48:21.712Z,76.10
2022-09-26T04:51:44.595Z,76.94
2022-09-26T04:54:46.795Z,76.52
2022-09-26T04:57:51.826Z,76.97
2022-09-26T05:00:56.661Z,77.45
2022-09-26T05:04:10.049Z,76.91
2022-09-26T05:07:14.278Z,76.82
2022-09-26T05:10:16.447Z,77.62
2022-09-26T05:13:26.748Z,77.89
2022-09-26T05:16:30.127Z,78.32
2022-09-26T05:19:35.284Z,77.96
2022-09-26T05:23:42.177Z,77.54
2022-09-26T05:26:51.509Z,77.40
2022-09-26T05:29:55.866Z,76.63
2022-09-26T05:32:58.708Z,76.67
2022-09-26T05:36:00.884Z,76.06
2022-09-26T05:39:05.090Z,77.25
2022-09-26T05:42:07.565Z,77.61
2022-09-26T05:45:10.803Z,76.66
2022-09-26T05:48:13.687Z,76.40
2022-09-26T05:51:17.493Z,75.62
2022-09-26T05:54:19.857Z,75.60
2022-09-26T05:57:21.945Z,75.15
2022-09-26T06:00:29.545Z,75.07
2022-09-26T06:03:34.623Z,75.56
2022-09-26T06:06:51.312Z,75.31
2022-09-26T06:09:53.425Z,75.53
2022-09-26T06:13:07.945Z,75.85
2022-09-26T06:16:28.587Z,74.67
2022-09-26T06:19:30.814Z,75.69
2022-09-26T06:22:42.845Z,76.03
2022-09-26T06:25:46.384Z,75.68
2022-09-26T06:28:50.052Z,76.00
2022-09-26T06:31:52.322Z,75.63
2022-09-26T06:35:21.441Z,75.29
2022-09-26T06:38:44.883Z,76.03
2022-09-26T06:41:51.627Z,75.61
2022-09-26T06:45:09.586Z,75.81
2022-09-26T06:48:30.322Z,75.16
2022-09-26T06:51:55.251Z,75.16
2022-09-26T06:54:57.373Z,75.41
2022-09-26T06:57:59.888Z,75.24
2022-09-26T07:01:06.623Z,74.80
2022-09-26T07:04:49.595Z,75.23
2022-09-26T07:07:57.705Z,75.96
2022-09-26T07:11:16.129Z,75.13
2022-09-26T07:14:24.338Z,74.56
2022-09-26T07:17:30.899Z,74.58
2022-09-26T07:20:46.579Z,74.61
2022-09-26T07:24:08.633Z,74.32
2022-09-26T07:27:11.391Z,74.38
2022-09-26T07:30:13.831Z,75.17
2022-09-26T07:33:26.350Z,75.42
2022-09-26T07:36:31.687Z,75.29
2022-09-26T07:39:34.316Z,74.19
2022-09-26T07:42:38.717Z,74.34
2022-09-26T07:45:59.461Z,73.71
2022-09-26T07:49:20.271Z,73.94
2022-09-26T07:52:42.301Z,72.18
2022-09-26T07:56:12.167Z,72.22
2022-09-26T07:59:54.258Z,72.67
2022-09-26T08:03:17.198Z,72.14
2022-09-26T08:06:20.931Z,72.78
2022-09-26T08:09:23.477Z,72.34
2022-09-26T08:12:44.148Z,72.80
2022-09-26T08:16:04.470Z,71.93
2022-09-26T08:19:08.338Z,72.58
2022-09-26T08:22:11.301Z,70.98
2022-09-26T08:25:13.562Z,70.26
2022-09-26T08:28:36.887Z,69.72
2022-09-26T08:31:40.219Z,70.70
2022-09-26T08:34:43.713Z,69.52
2022-09-26T08:38:15.250Z,69.77
2022-09-26T08:41:32.644Z,69.13
2022-09-26T08:45:40.008Z,68.69
2022-09-26T08:49:24.115Z,67.39
2022-09-26T08:52:41.370Z,65.90
2022-09-26T08:55:45.291Z,65.59
2022-09-26T08:58:52.150Z,64.92
2022-09-26T09:02:00.699Z,65.38
2022-09-26T09:05:19.438Z,65.39
2022-09-26T09:08:35.378Z,64.81
2022-09-26T09:12:24.846Z,65.63
2022-09-26T09:16:32.122Z,64.47
2022-09-26T09:20:15.144Z,63.52
2022-09-26T09:23:53.003Z,62.83
2022-09-26T09:31:03.278Z,59.32
2022-09-26T09:34:41.240Z,61.20
2022-09-26T09:38:23.606Z,61.51
2022-09-26T09:41:50.256Z,60.29
2022-09-26T09:45:09.811Z,59.63
2022-09-26T09:48:15.154Z,58.55
2022-09-26T09:51:41.816Z,59.53
2022-09-26T09:54:59.576Z,59.76
2022-09-26T09:58:24.293Z,59.36
2022-09-26T10:01:35.971Z,56.68
2022-09-26T10:04:54.910Z,55.92
2022-09-26T10:07:58.361Z,54.49
2022-09-26T10:11:39.490Z,57.50
2022-09-26T10:15:19.743Z,59.45
2022-09-26T10:19:03.502Z,58.73
2022-09-26T10:22:25.027Z,59.91
2022-09-26T10:25:27.503Z,56.63
2022-09-26T10:28:44.970Z,57.21
2022-09-26T10:31:49.278Z,55.91
2022-09-26T10:35:20.826Z,57.13
2022-09-26T10:38:24.771Z,54.91
2022-09-26T10:41:40.111Z,52.53
2022-09-26T10:44:43.095Z,53.37
2022-09-26T10:47:59.338Z,55.04
2022-09-26T10:51:42.858Z,56.19
2022-09-26T10:55:16.978Z,57.04
2022-09-26T10:58:27.676Z,56.57
2022-09-26T11:01:32.474Z,54.52
2022-09-26T11:04:54.188Z,52.84
2022-09-26T11:08:15.214Z,52.96
2022-09-26T11:11:28.050Z,51.29
2022-09-26T11:14:34.474Z,50.62
2022-09-26T11:17:49.355Z,52.01
2022-09-26T11:20:52.150Z,52.27
2022-09-26T11:24:22.982Z,49.70
2022-09-26T11:27:25.184Z,50.71
2022-09-26T11:30:27.936Z,52.52
2022-09-26T11:33:36.196Z,51.21
2022-09-26T11:37:34.661Z,51.81
2022-09-26T11:41:03.754Z,54.72
2022-09-26T11:44:39.192Z,52.34
2022-09-26T11:48:51.560Z,48.96
2022-09-26T11:52:55.468Z,50.60
2022-09-26T11:56:18.897Z,50.84
2022-09-26T11:59:50.419Z,54.10
2022-09-26T12:03:07.465Z,55.12
2022-09-26T12:06:25.817Z,55.19
2022-09-26T12:09:56.238Z,51.10
2022-09-26T12:13:03.331Z,48.04
2022-09-26T12:16:37.342Z,49.78
2022-09-26T12:20:15.942Z,48.62
2022-09-26T12:23:37.885Z,47.80
2022-09-26T12:26:57.402Z,46.66
2022-09-26T12:30:14.355Z,47.72
2022-09-26T12:33:53.380Z,43.65
2022-09-26T12:37:09.821Z,45.44
2022-09-26T12:40:36.287Z,44.28
2022-09-26T12:44:28.527Z,45.32
2022-09-26T12:48:09.334Z,50.67
2022-09-26T12:51:49.050Z,58.06
2022-09-26T12:55:24.344Z,59.45
2022-09-26T12:59:07.562Z,56.10
2022-09-26T13:02:33.232Z,53.48
2022-09-26T13:06:05.063Z,49.58
2022-09-26T13:09:41.265Z,49.19
2022-09-26T13:13:47.995Z,52.29
2022-09-26T13:17:10.263Z,48.98
2022-09-26T13:20:43.737Z,51.32
2022-09-26T13:23:58.711Z,51.12
2022-09-26T13:27:17.943Z,48.96
2022-09-26T13:30:24.414Z,48.87
2022-09-26T13:34:04.063Z,47.37
2022-09-26T13:37:17.537Z,47.42
2022-09-26T13:41:07.143Z,54.09
2022-09-26T13:44:29.598Z,53.66
2022-09-26T13:48:03.891Z,55.68
2022-09-26T13:51:21.121Z,53.56
2022-09-26T13:54:44.179Z,54.44
2022-09-26T13:58:03.880Z,53.17
2022-09-26T14:01:25.711Z,53.77
2022-09-26T14:04:36.934Z,57.74
2022-09-26T14:07:57.501Z,57.39
2022-09-26T14:11:11.936Z,61.72
2022-09-26T14:14:17.956Z,62.98
2022-09-26T14:17:44.542Z,64.39
2022-09-26T14:21:14.790Z,61.52
2022-09-26T14:24:36.506Z,62.72
2022-09-26T14:27:39.455Z,64.31
2022-09-26T14:30:41.545Z,66.68
2022-09-26T14:33:44.240Z,63.89
2022-09-26T14:36:46.715Z,63.52
2022-09-26T14:39:51.175Z,62.26
2022-09-26T14:42:57.735Z,59.42
2022-09-26T14:46:14.432Z,57.72
2022-09-26T14:49:26.432Z,55.81
2022-09-26T14:52:28.615Z,55.51
2022-09-26T14:55:30.814Z,55.89
2022-09-26T14:58:54.636Z,54.84
2022-09-26T15:02:17.666Z,45.25
2022-09-26T15:05:23.535Z,42.42
2022-09-26T15:08:32.029Z,42.33
2022-09-26T15:11:44.167Z,42.74
2022-09-26T15:15:34.514Z,54.41
2022-09-26T15:18:40.365Z,54.55
2022-09-26T15:21:45.254Z,56.30
2022-09-26T15:24:47.425Z,57.38
2022-09-26T15:27:54.196Z,58.67
2022-09-26T15:31:25.311Z,58.94
2022-09-26T15:34:46.860Z,56.41
2022-09-26T15:37:48.967Z,58.40
2022-09-26T15:41:01.478Z,55.83
2022-09-26T15:44:06.827Z,56.04
2022-09-26T15:47:34.213Z,55.83
2022-09-26T15:50:42.833Z,54.10
2022-09-26T15:53:53.572Z,54.94
2022-09-26T15:57:01.543Z,54.72
2022-09-26T16:00:04.523Z,54.61
2022-09-26T16:03:41.130Z,53.32
2022-09-26T16:06:52.849Z,48.30
2022-09-26T16:09:56.097Z,44.32
2022-09-26T16:12:59.631Z,45.47
2022-09-26T16:16:06.095Z,46.77
2022-09-26T16:19:30.884Z,48.45
2022-09-26T16:23:01.748Z,47.15
2022-09-26T16:26:30.161Z,45.22
2022-09-26T16:29:35.035Z,45.09
2022-09-26T16:32:37.421Z,45.07
2022-09-26T16:35:47.444Z,41.93
2022-09-26T16:38:58.014Z,48.79
2022-09-26T16:42:12.406Z,51.53
2022-09-26T16:45:14.518Z,52.09
2022-09-26T16:48:51.076Z,52.57
2022-09-26T16:52:34.471Z,55.04
2022-09-26T16:55:37.479Z,56.27
2022-09-26T16:58:44.332Z,62.00
2022-09-26T17:01:53.971Z,75.26
2022-09-26T17:04:56.264Z,78.58
2022-09-26T17:07:58.376Z,78.38
2022-09-26T17:11:02.566Z,77.95
2022-09-26T17:14:04.679Z,76.35
2022-09-26T17:17:08.169Z,76.11
2022-09-26T17:20:13.106Z,74.62
2022-09-26T17:23:38.280Z,73.57
2022-09-26T17:26:37.633Z,74.63
2022-09-26T17:29:43.639Z,73.07
2022-09-26T17:32:49.988Z,74.38
2022-09-26T17:35:52.634Z,74.70
2022-09-26T17:38:55.523Z,75.07
2022-09-26T17:41:59.946Z,75.12
2022-09-26T17:45:02.095Z,75.66
2022-09-26T17:48:24.285Z,75.85
2022-09-26T17:51:26.399Z,75.23
2022-09-26T17:54:42.566Z,75.44
2022-09-26T17:57:44.832Z,75.24
2022-09-26T18:00:49.238Z,75.15
2022-09-26T18:03:54.802Z,74.74
2022-09-26T18:07:01.165Z,74.33
2022-09-26T18:10:06.650Z,75.45
2022-09-26T18:13:13.483Z,74.19
2022-09-26T18:16:16.005Z,74.78
2022-09-26T18:19:20.895Z,73.93
2022-09-26T18:22:27.484Z,72.79
2022-09-26T18:25:29.560Z,72.66
2022-09-26T18:28:31.710Z,72.23
2022-09-26T18:31:38.672Z,73.78
2022-09-26T18:34:40.800Z,73.95
2022-09-26T18:37:43.581Z,73.73
2022-09-26T18:40:51.860Z,73.97
2022-09-26T18:43:55.653Z,74.78
2022-09-26T18:47:01.718Z,73.75
2022-09-26T18:50:05.691Z,75.19
2022-09-26T18:53:16.332Z,75.64
2022-09-26T18:56:36.831Z,76.07
2022-09-26T18:59:38.951Z,76.52
2022-09-26T19:02:41.343Z,77.19
2022-09-26T19:05:43.592Z,77.35
2022-09-26T19:08:47.555Z,77.30
2022-09-26T19:11:49.735Z,77.23
2022-09-26T19:14:51.988Z,77.14
2022-09-26T19:17:54.183Z,76.94
2022-09-26T19:20:56.324Z,77.42
2022-09-26T19:24:34.395Z,75.37
2022-09-26T19:27:46.533Z,75.25
2022-09-26T19:30:48.971Z,75.95
2022-09-26T19:33:51.261Z,76.01
2022-09-26T19:36:53.449Z,75.83
2022-09-26T19:39:57.755Z,75.86
2022-09-26T19:42:59.889Z,75.25
2022-09-26T19:46:06.129Z,75.50
2022-09-26T19:49:10.235Z,74.38
2022-09-26T19:52:16.943Z,74.95
2022-09-26T19:55:32.496Z,75.29
2022-09-26T19:58:34.696Z,75.76
2022-09-26T20:01:36.862Z,76.77
2022-09-26T20:04:39.000Z,77.47
2022-09-26T20:07:41.067Z,76.59
2022-09-26T20:10:43.371Z,76.61
2022-09-26T20:14:04.146Z,76.95
2022-09-26T20:17:17.885Z,76.68
2022-09-26T20:20:23.179Z,76.37
2022-09-26T20:23:26.373Z,76.78
2022-09-26T20:26:29.531Z,76.08
2022-09-26T20:29:51.543Z,76.02
2022-09-26T20:32:53.847Z,75.11
2022-09-26T20:36:05.300Z,76.58
2022-09-26T20:39:12.427Z,75.95
2022-09-26T20:42:16.965Z,75.34
2022-09-26T20:45:22.834Z,75.40
2022-09-26T20:48:26.235Z,75.15
2022-09-26T20:51:30.098Z,74.39
2022-09-26T20:54:32.829Z,75.21
2022-09-26T20:57:35.108Z,74.30
2022-09-26T21:00:38.854Z,72.88
2022-09-26T21:03:44.552Z,72.59
2022-09-26T21:06:46.871Z,71.09
2022-09-26T21:09:52.250Z,71.54
2022-09-26T21:12:54.643Z,71.79
2022-09-26T21:15:56.730Z,71.24
2022-09-26T21:18:58.854Z,70.59
2022-09-26T21:22:02.722Z,70.50
2022-09-26T21:25:32.535Z,70.30
2022-09-26T21:28:34.659Z,70.03
2022-09-26T21:31:36.984Z,70.12
2022-09-26T21:34:39.092Z,69.53
2022-09-26T21:37:42.619Z,70.31
2022-09-26T21:40:44.866Z,69.93
2022-09-26T21:43:55.067Z,69.97
2022-09-26T21:46:57.154Z,70.40
2022-09-26T21:49:59.369Z,69.48
2022-09-26T21:53:10.567Z,69.50
2022-09-26T21:56:19.712Z,70.88
2022-09-26T21:59:22.800Z,70.58
2022-09-26T22:02:25.903Z,71.31
2022-09-26T22:05:28.437Z,72.01
2022-09-26T22:08:31.301Z,71.98
2022-09-26T22:11:35.862Z,71.65
2022-09-26T22:14:37.890Z,70.46
2022-09-26T22:17:39.962Z,69.91
2022-09-26T22:20:42.009Z,70.70
2022-09-26T22:23:44.082Z,71.09
2022-09-26T22:26:46.146Z,72.91
2022-09-26T22:29:48.459Z,70.54
2022-09-26T22:32:50.738Z,71.31
2022-09-26T22:35:52.814Z,72.59
2022-09-26T22:38:54.917Z,72.26
2022-09-26T22:41:57.026Z,72.99
2022-09-26T22:44:59.104Z,74.29
2022-09-26T22:48:01.399Z,75.88
2022-09-26T22:51:03.862Z,76.89
2022-09-26T22:54:06.074Z,77.07
2022-09-26T22:57:08.220Z,77.58
2022-09-26T23:00:13.062Z,77.54
2022-09-26T23:03:15.188Z,76.73
2022-09-26T23:06:17.307Z,76.82
2022-09-26T23:09:19.369Z,77.05
2022-09-26T23:12:21.431Z,77.47
2022-09-26T23:15:23.496Z,76.34
2022-09-26T23:18:25.589Z,76.02
2022-09-26T23:21:27.745Z,75.29
2022-09-26T23:24:29.856Z,74.57
2022-09-26T23:27:31.975Z,74.47
2022-09-26T23:30:34.076Z,74.15
2022-09-26T23:33:37.779Z,74.75
2022-09-26T23:36:39.863Z,74.13
2022-09-26T23:39:41.940Z,74.50
2022-09-26T23:42:44.859Z,73.67
2022-09-26T23:45:46.976Z,75.94
2022-09-26T23:48:49.095Z,74.11
2022-09-26T23:51:52.187Z,76.15
2022-09-26T23:54:54.240Z,74.40
2022-09-26T23:57:58.359Z,72.47
